Time;durP1;ratioP1;P1;durP2;ratioP2;P2;SDS_P1;SDS_P2;PMS_P1;PMS_P2;Temp;Humidity;BMP_temperature;BMP_pressure;BME280_temperature;BME280_humidity;BME280_pressure;Samples;Min_cycle;Max_cycle;Signal;HPM_P1;HPM_P2
2021/06/02 00:00:55;;;;;;;;;;;;;;;21.11;41.75;101371.66;2097291;28;4365;-69
2021/06/02 00:01:57;;;;;;;;;;;;;;;21.11;41.88;101363.13;2097487;28;4010;-69
2021/06/02 00:02:59;;;;;;;;;;;;;;;21.10;41.88;101370.00;2099139;28;4004;-70
2021/06/02 00:04:00;;;;;;;;;;;;;;;21.10;42.01;101370.81;2097360;28;4175;-73
2021/06/02 00:05:01;;;;;;;;;;;;;;;21.10;41.98;101364.31;2097784;28;4432;-70
2021/06/02 00:06:02;;;;;;;;;;;;;;;21.10;41.97;101370.00;2097575;28;3913;-71
2021/06/02 00:07:05;;;;;;;;;;;;;;;21.09;42.08;101368.34;2098213;28;3845;-69
2021/06/02 00:08:07;;;;;;;;;;;;;;;21.10;42.14;101372.84;2097667;28;4040;-69
2021/06/02 00:09:08;;;;;;;;;;;;;;;21.09;42.21;101377.72;2097862;28;3916;-72
2021/06/02 00:10:09;;;;;;;;;;;;;;;21.09;42.28;101377.72;2095937;28;4417;-73
2021/06/02 00:11:10;;;;;;;;;;;;;;;21.08;42.42;101373.16;2096604;28;4119;-69
2021/06/02 00:12:11;;;;;;;;;;;;;;;21.08;42.37;101373.16;2097982;28;4110;-69
2021/06/02 00:13:13;;;;;;;;;;;;;;;21.08;42.36;101373.16;2097868;28;4163;-70
2021/06/02 00:14:14;;;;;;;;;;;;;;;21.07;42.55;101374.34;2096601;28;4251;-69
2021/06/02 00:15:15;;;;;;;;;;;;;;;21.07;42.44;101377.19;2097821;28;4351;-70
2021/06/02 00:16:16;;;;;;;;;;;;;;;21.07;42.52;101380.03;2097465;28;4002;-68
2021/06/02 00:17:18;;;;;;;;;;;;;;;21.07;42.70;101370.69;2097196;28;4012;-69
2021/06/02 00:18:19;;;;;;;;;;;;;;;21.07;42.58;101379.22;2098601;28;4387;-69
2021/06/02 00:19:20;;;;;;;;;;;;;;;21.06;42.57;101369.00;2097848;28;4208;-69
2021/06/02 00:20:21;;;;;;;;;;;;;;;21.06;42.74;101369.84;2097510;28;4114;-70
2021/06/02 00:21:23;;;;;;;;;;;;;;;21.05;42.74;101373.84;2097463;28;3839;-70
2021/06/02 00:22:24;;;;;;;;;;;;;;;21.04;42.79;101366.50;2097286;28;4320;-70
2021/06/02 00:23:25;;;;;;;;;;;;;;;21.05;42.72;101368.16;2098895;28;4029;-71
2021/06/02 00:24:26;;;;;;;;;;;;;;;21.04;42.85;101372.19;2096566;28;4304;-70
2021/06/02 00:25:27;;;;;;;;;;;;;;;21.04;42.96;101372.19;2097172;28;4178;-70
2021/06/02 00:26:29;;;;;;;;;;;;;;;21.03;42.86;101370.50;2096696;28;3997;-70
2021/06/02 00:27:30;;;;;;;;;;;;;;;21.03;42.95;101372.53;2098199;28;5096;-70
2021/06/02 00:28:31;;;;;;;;;;;;;;;21.04;42.96;101377.06;2098541;28;3848;-70
2021/06/02 00:29:32;;;;;;;;;;;;;;;21.03;43.08;101379.03;2097866;28;3970;-70
2021/06/02 00:30:33;;;;;;;;;;;;;;;21.03;43.12;101373.34;2097832;28;4144;-70
2021/06/02 00:31:35;;;;;;;;;;;;;;;21.03;43.03;101373.34;2097694;28;4202;-70
2021/06/02 00:32:36;;;;;;;;;;;;;;;21.02;43.04;101370.88;2096609;28;4053;-71
2021/06/02 00:33:37;;;;;;;;;;;;;;;21.02;43.16;101368.84;2098365;28;4273;-70
2021/06/02 00:34:39;;;;;;;;;;;;;;;21.01;43.22;101370.03;2097596;28;4085;-70
2021/06/02 00:35:40;;;;;;;;;;;;;;;21.02;43.27;101368.03;2095567;28;3834;-69
2021/06/02 00:36:41;;;;;;;;;;;;;;;21.02;43.25;101368.03;2098869;28;3968;-69
2021/06/02 00:37:43;;;;;;;;;;;;;;;21.01;43.33;101370.03;2096076;28;5290;-68
2021/06/02 00:38:44;;;;;;;;;;;;;;;20.99;43.44;101366.69;2098561;28;5203;-69
2021/06/02 00:39:45;;;;;;;;;;;;;;;21.00;43.29;101364.66;2098220;28;4258;-69
2021/06/02 00:40:46;;;;;;;;;;;;;;;21.01;43.31;101369.22;2097763;28;4014;-71
2021/06/02 00:41:47;;;;;;;;;;;;;;;21.00;43.51;101364.66;2098542;28;3995;-71
2021/06/02 00:42:49;;;;;;;;;;;;;;;21.00;43.45;101370.34;2097376;28;4107;-70
2021/06/02 00:43:51;;;;;;;;;;;;;;;20.99;43.53;101363.84;2097782;28;4966;-72
2021/06/02 00:44:52;;;;;;;;;;;;;;;20.99;43.45;101363.00;2095311;28;4041;-72
2021/06/02 00:45:53;;;;;;;;;;;;;;;20.98;43.42;101365.03;2097214;28;4033;-74
2021/06/02 00:46:54;;;;;;;;;;;;;;;20.99;43.51;101368.69;2098551;28;3851;-71
2021/06/02 00:47:55;;;;;;;;;;;;;;;20.98;43.54;101372.69;2096238;28;5133;-72
2021/06/02 00:48:57;;;;;;;;;;;;;;;20.97;43.64;101371.88;2098305;28;3935;-71
2021/06/02 00:49:58;;;;;;;;;;;;;;;20.97;43.67;101368.19;2096325;28;4168;-73
2021/06/02 00:50:59;;;;;;;;;;;;;;;20.96;43.65;101373.06;2096122;28;5072;-73
2021/06/02 00:52:00;;;;;;;;;;;;;;;20.95;43.63;101371.41;2089425;28;4023;-71
2021/06/02 00:53:02;;;;;;;;;;;;;;;20.96;43.62;101373.06;2088240;28;4930;-72
2021/06/02 00:54:03;;;;;;;;;;;;;;;20.95;43.68;101379.06;2098062;28;4346;-71
2021/06/02 00:55:04;;;;;;;;;;;;;;;20.95;43.79;101373.38;2097483;28;4004;-71
2021/06/02 00:56:06;;;;;;;;;;;;;;;20.95;43.84;101373.38;2097551;28;3856;-69
2021/06/02 00:57:07;;;;;;;;;;;;;;;20.94;43.91;101377.41;2097937;28;3954;-69
2021/06/02 00:58:08;;;;;;;;;;;;;;;20.94;43.74;101371.72;2095902;28;3985;-70
2021/06/02 00:59:09;;;;;;;;;;;;;;;20.93;43.84;101370.06;2097735;28;4069;-69
2021/06/02 01:00:12;;;;;;;;;;;;;;;20.93;43.78;101378.59;2097165;28;5182;-70
2021/06/02 01:01:13;;;;;;;;;;;;;;;20.93;43.90;101385.13;2096238;28;4013;-69
2021/06/02 01:02:14;;;;;;;;;;;;;;;20.93;43.94;101381.44;2097419;28;3899;-69
2021/06/02 01:03:15;;;;;;;;;;;;;;;20.91;43.98;101379.75;2096754;28;4077;-69
2021/06/02 01:04:16;;;;;;;;;;;;;;;20.91;43.87;101382.59;2095857;28;3897;-69
2021/06/02 01:05:18;;;;;;;;;;;;;;;20.91;43.95;101388.28;2097281;28;4105;-69
2021/06/02 01:06:20;;;;;;;;;;;;;;;20.91;43.88;101384.63;2098443;28;5082;-69
2021/06/02 01:07:21;;;;;;;;;;;;;;;20.90;43.99;101380.94;2096797;28;3879;-69
2021/06/02 01:08:22;;;;;;;;;;;;;;;20.90;43.94;101383.78;2096984;28;4167;-68
2021/06/02 01:09:23;;;;;;;;;;;;;;;20.89;44.08;101387.78;2096974;28;4018;-70
2021/06/02 01:10:25;;;;;;;;;;;;;;;20.89;43.90;101382.09;2096434;28;3851;-70
2021/06/02 01:11:26;;;;;;;;;;;;;;;20.88;44.12;101386.13;2096915;28;4137;-70
2021/06/02 01:12:27;;;;;;;;;;;;;;;20.87;44.10;101384.47;2097812;28;5388;-70
2021/06/02 01:13:29;;;;;;;;;;;;;;;20.86;44.10;101382.78;2097617;28;3984;-70
2021/06/02 01:14:30;;;;;;;;;;;;;;;20.87;44.08;101392.16;2090964;28;3980;-70
2021/06/02 01:15:31;;;;;;;;;;;;;;;20.87;43.99;101392.16;2095625;28;3729;-70
2021/06/02 01:16:32;;;;;;;;;;;;;;;20.86;44.04;101394.16;2096699;28;3996;-70
2021/06/02 01:17:34;;;;;;;;;;;;;;;20.87;43.96;101393.00;2095630;28;3817;-70
2021/06/02 01:18:35;;;;;;;;;;;;;;;20.85;43.97;101389.66;2096403;28;3983;-70
2021/06/02 01:19:37;;;;;;;;;;;;;;;20.85;44.01;101398.19;2097091;28;3833;-70
2021/06/02 01:20:38;;;;;;;;;;;;;;;20.84;44.06;101390.84;2094791;28;4037;-70
2021/06/02 01:21:39;;;;;;;;;;;;;;;20.85;44.24;101395.34;2096337;28;3947;-70
2021/06/02 01:22:40;;;;;;;;;;;;;;;20.85;44.09;101392.50;2097059;28;3960;-71
2021/06/02 01:23:42;;;;;;;;;;;;;;;20.85;44.12;101394.50;2097514;28;3950;-70
2021/06/02 01:24:43;;;;;;;;;;;;;;;20.85;43.95;101392.50;2095186;28;3988;-70
2021/06/02 01:25:44;;;;;;;;;;;;;;;20.85;44.14;101395.34;2097045;28;5079;-69
2021/06/02 01:26:45;;;;;;;;;;;;;;;20.84;44.04;101395.66;2095047;28;4040;-70
2021/06/02 01:27:47;;;;;;;;;;;;;;;20.83;44.16;101396.84;2096339;28;3860;-70
2021/06/02 01:28:48;;;;;;;;;;;;;;;20.83;44.19;101394.84;2095881;28;4025;-70
2021/06/02 01:29:49;;;;;;;;;;;;;;;20.83;44.15;101394.84;2092989;28;4123;-69
2021/06/02 01:30:50;;;;;;;;;;;;;;;20.85;44.37;101392.50;2094338;28;3899;-73
2021/06/02 01:31:52;;;;;;;;;;;;;;;20.86;44.21;101396.16;2095567;28;3977;-71
2021/06/02 01:32:54;;;;;;;;;;;;;;;20.86;44.19;101394.16;2096627;28;4177;-69
2021/06/02 01:33:56;;;;;;;;;;;;;;;20.87;44.19;101390.16;2096345;28;4023;-69
2021/06/02 01:34:57;;;;;;;;;;;;;;;20.87;44.27;101395.84;2097271;28;3880;-69
2021/06/02 01:36:02;;;;;;;;;;;;;;;20.87;44.19;101395.84;2096120;28;4169;-69
2021/06/02 01:37:03;;;;;;;;;;;;;;;20.87;44.24;101392.16;2097095;28;3845;-69
2021/06/02 01:38:04;;;;;;;;;;;;;;;20.87;44.42;101389.31;2088643;28;4122;-69
2021/06/02 01:39:05;;;;;;;;;;;;;;;20.87;44.29;101392.16;2088699;28;3820;-69
2021/06/02 01:40:07;;;;;;;;;;;;;;;20.87;44.30;101395.84;2085595;28;4049;-69
2021/06/02 01:41:08;;;;;;;;;;;;;;;20.87;44.28;101387.31;2097293;28;4005;-69
2021/06/02 01:42:09;;;;;;;;;;;;;;;20.88;44.43;101391.81;2097896;28;4064;-69
2021/06/02 01:43:11;;;;;;;;;;;;;;;20.88;44.44;101397.50;2096171;28;4947;-69
2021/06/02 01:44:12;;;;;;;;;;;;;;;20.88;44.35;101396.66;2097504;28;3868;-69
2021/06/02 01:45:13;;;;;;;;;;;;;;;20.88;44.29;101391.81;2096921;28;4018;-69
2021/06/02 01:46:14;;;;;;;;;;;;;;;20.87;44.40;101395.84;2095221;28;3855;-69
2021/06/02 01:47:16;;;;;;;;;;;;;;;20.88;44.44;101391.81;2095623;28;4097;-69
2021/06/02 01:48:18;;;;;;;;;;;;;;;20.88;44.44;101403.19;2097669;28;4021;-69
2021/06/02 01:49:19;;;;;;;;;;;;;;;20.88;44.30;101391.81;2097657;28;3990;-69
2021/06/02 01:50:26;;;;;;;;;;;;;;;20.87;44.46;101390.16;2095059;28;4128;-69
2021/06/02 01:51:27;;;;;;;;;;;;;;;20.87;44.29;101393.00;2097404;28;3835;-69
2021/06/02 01:52:28;;;;;;;;;;;;;;;20.86;44.49;101382.78;2097717;28;3871;-69
2021/06/02 01:53:29;;;;;;;;;;;;;;;20.87;44.43;101395.84;2096627;28;4059;-69
2021/06/02 01:54:30;;;;;;;;;;;;;;;20.87;44.35;101395.84;2097815;28;4015;-69
2021/06/02 01:55:32;;;;;;;;;;;;;;;20.87;44.55;101400.69;2096425;28;4055;-70
2021/06/02 01:56:33;;;;;;;;;;;;;;;20.86;44.35;101393.31;2096805;28;4163;-69
2021/06/02 01:57:35;;;;;;;;;;;;;;;20.86;44.37;101393.31;2097502;28;3798;-69
2021/06/02 01:58:36;;;;;;;;;;;;;;;20.85;44.49;101398.19;2096927;28;3845;-69
2021/06/02 01:59:37;;;;;;;;;;;;;;;20.86;44.49;101399.00;2093797;28;3831;-69
2021/06/02 02:00:38;;;;;;;;;;;;;;;20.86;44.43;101399.84;2095669;28;5098;-69
2021/06/02 02:01:40;;;;;;;;;;;;;;;20.86;44.39;101407.53;2096759;28;3968;-69
2021/06/02 02:02:43;;;;;;;;;;;;;;;20.86;44.32;101399.00;2096471;28;3802;-69
2021/06/02 02:03:44;;;;;;;;;;;;;;;20.86;44.29;101407.53;2096686;28;4328;-69
2021/06/02 02:04:45;;;;;;;;;;;;;;;20.85;44.30;101403.03;2097679;28;4180;-69
2021/06/02 02:05:46;;;;;;;;;;;;;;;20.86;44.37;101407.53;2097880;28;4328;-69
2021/06/02 02:06:47;;;;;;;;;;;;;;;20.86;44.50;101401.84;2095914;28;4421;-70
2021/06/02 02:07:49;;;;;;;;;;;;;;;20.86;44.40;101407.53;2097606;28;4344;-68
2021/06/02 02:08:50;;;;;;;;;;;;;;;20.85;44.39;101406.72;2097647;28;4188;-69
2021/06/02 02:09:51;;;;;;;;;;;;;;;20.86;44.47;101397.00;2096569;28;4047;-69
2021/06/02 02:10:52;;;;;;;;;;;;;;;20.85;44.32;101403.88;2097156;28;4025;-69
2021/06/02 02:11:53;;;;;;;;;;;;;;;20.86;44.56;101404.69;2096461;28;4030;-69
2021/06/02 02:12:55;;;;;;;;;;;;;;;20.86;44.48;101405.53;2095609;28;4006;-70
2021/06/02 02:13:56;;;;;;;;;;;;;;;20.86;44.34;101399.84;2097125;28;4038;-68
2021/06/02 02:14:58;;;;;;;;;;;;;;;20.87;44.34;101403.53;2095904;28;3997;-69
2021/06/02 02:15:59;;;;;;;;;;;;;;;20.88;44.44;101405.22;2095979;28;3992;-69
2021/06/02 02:17:00;;;;;;;;;;;;;;;20.88;44.34;101403.19;2096274;28;4056;-69
2021/06/02 02:18:01;;;;;;;;;;;;;;;20.88;44.38;101402.38;2097144;28;4340;-69
2021/06/02 02:19:03;;;;;;;;;;;;;;;20.88;44.44;101402.38;2097460;28;4331;-70
2021/06/02 02:20:04;;;;;;;;;;;;;;;20.87;44.46;101409.22;2096883;28;4141;-69
2021/06/02 02:21:05;;;;;;;;;;;;;;;20.86;44.46;101408.38;2096214;28;4024;-68
2021/06/02 02:22:06;;;;;;;;;;;;;;;20.86;44.50;101411.22;2088248;28;3986;-69
2021/06/02 02:23:07;;;;;;;;;;;;;;;20.87;44.37;101412.91;2087141;28;3876;-68
2021/06/02 02:24:09;;;;;;;;;;;;;;;20.84;44.36;101407.91;2097325;28;3958;-68
2021/06/02 02:25:10;;;;;;;;;;;;;;;20.84;44.34;101407.03;2096256;28;4077;-68
2021/06/02 02:26:11;;;;;;;;;;;;;;;20.84;44.57;101412.72;2097133;28;3771;-68
2021/06/02 02:27:13;;;;;;;;;;;;;;;20.84;44.36;101412.72;2094525;28;3938;-68
2021/06/02 02:28:14;;;;;;;;;;;;;;;20.82;44.32;101415.94;2097177;28;4308;-69
2021/06/02 02:29:15;;;;;;;;;;;;;;;20.82;44.49;101421.63;2097272;28;3876;-68
2021/06/02 02:30:16;;;;;;;;;;;;;;;20.81;44.48;101402.88;2096086;28;3868;-68
2021/06/02 02:31:17;;;;;;;;;;;;;;;20.81;44.46;101407.72;2097508;28;3822;-68
2021/06/02 02:32:19;;;;;;;;;;;;;;;20.81;44.55;101413.41;2097125;28;4047;-68
2021/06/02 02:33:20;;;;;;;;;;;;;;;20.81;44.57;101410.56;2096879;28;3769;-68
2021/06/02 02:34:21;;;;;;;;;;;;;;;20.80;44.45;101406.06;2096826;28;4000;-68
2021/06/02 02:35:23;;;;;;;;;;;;;;;20.80;44.42;101403.22;2097024;28;3970;-68
2021/06/02 02:36:24;;;;;;;;;;;;;;;20.80;44.44;101406.88;2098087;28;4020;-69
2021/06/02 02:37:25;;;;;;;;;;;;;;;20.79;44.43;101412.94;2096262;28;3834;-68
2021/06/02 02:38:26;;;;;;;;;;;;;;;20.79;44.42;101415.78;2097222;28;4343;-68
2021/06/02 02:39:27;;;;;;;;;;;;;;;20.77;44.36;101407.56;2097757;28;3995;-68
2021/06/02 02:40:29;;;;;;;;;;;;;;;20.77;44.39;101410.41;2096484;28;3978;-68
2021/06/02 02:41:30;;;;;;;;;;;;;;;20.77;44.53;101407.56;2096883;28;3812;-68
2021/06/02 02:42:35;;;;;;;;;;;;;;;20.77;44.61;101418.13;2097447;28;3952;-69
2021/06/02 02:43:37;;;;;;;;;;;;;;;20.77;44.32;101409.59;2095840;28;4079;-68
2021/06/02 02:44:38;;;;;;;;;;;;;;;20.77;44.39;101418.13;2086367;28;3823;-68
2021/06/02 02:45:40;;;;;;;;;;;;;;;20.76;44.49;101414.44;2086111;28;4419;-68
2021/06/02 02:46:41;;;;;;;;;;;;;;;20.76;44.37;101411.59;2096044;28;4205;-69
2021/06/02 02:47:42;;;;;;;;;;;;;;;20.76;44.33;101411.59;2097999;28;3684;-68
2021/06/02 02:48:43;;;;;;;;;;;;;;;20.75;44.44;101418.44;2097053;28;4447;-70
2021/06/02 02:49:45;;;;;;;;;;;;;;;20.76;44.40;101414.44;2096628;28;3926;-69
2021/06/02 02:50:46;;;;;;;;;;;;;;;20.76;44.54;101414.44;2096804;28;4043;-69
2021/06/02 02:51:52;;;;;;;;;;;;;;;20.76;44.44;101417.28;2097008;28;4010;-68
2021/06/02 02:52:53;;;;;;;;;;;;;;;20.75;44.52;101420.44;2088746;28;4036;-68
2021/06/02 02:53:54;;;;;;;;;;;;;;;20.74;44.44;101422.47;2088714;28;3840;-68
2021/06/02 02:54:55;;;;;;;;;;;;;;;20.75;44.43;101417.59;2096451;28;4010;-68
2021/06/02 02:55:57;;;;;;;;;;;;;;;20.75;44.40;101414.75;2096355;28;3939;-69
2021/06/02 02:56:58;;;;;;;;;;;;;;;20.74;44.53;101422.47;2097237;28;3876;-69
2021/06/02 02:57:59;;;;;;;;;;;;;;;20.74;44.43;101419.63;2095530;28;3933;-69
2021/06/02 02:59:00;;;;;;;;;;;;;;;20.74;44.63;101425.31;2096475;28;4331;-69
2021/06/02 03:00:02;;;;;;;;;;;;;;;20.73;44.69;101423.66;2095650;28;4076;-69
2021/06/02 03:01:03;;;;;;;;;;;;;;;20.74;44.46;101422.47;2096228;28;4016;-68
2021/06/02 03:02:04;;;;;;;;;;;;;;;20.73;44.56;101425.63;2097465;28;4097;-69
2021/06/02 03:03:05;;;;;;;;;;;;;;;20.73;44.70;101422.78;2096811;28;3923;-69
2021/06/02 03:04:07;;;;;;;;;;;;;;;20.73;44.52;101420.81;2097208;28;4018;-69
2021/06/02 03:05:08;;;;;;;;;;;;;;;20.73;44.66;101431.31;2096784;28;4041;-69
2021/06/02 03:06:09;;;;;;;;;;;;;;;20.71;44.63;101431.66;2095773;28;3877;-69
2021/06/02 03:07:10;;;;;;;;;;;;;;;20.72;44.53;101424.81;2095832;28;3835;-68
2021/06/02 03:08:11;;;;;;;;;;;;;;;20.72;44.53;101430.50;2095734;28;4124;-69
2021/06/02 03:09:13;;;;;;;;;;;;;;;20.72;44.68;101430.50;2096375;28;4023;-70
2021/06/02 03:10:14;;;;;;;;;;;;;;;20.71;44.51;101430.84;2096981;28;4030;-69
2021/06/02 03:11:15;;;;;;;;;;;;;;;20.71;44.62;101431.66;2096779;28;3887;-69
2021/06/02 03:12:16;;;;;;;;;;;;;;;20.71;44.62;101428.81;2098076;28;5486;-69
2021/06/02 03:13:18;;;;;;;;;;;;;;;20.71;44.80;101434.50;2087952;28;4002;-69
2021/06/02 03:14:19;;;;;;;;;;;;;;;20.69;44.65;101426.31;2086707;28;4027;-69
2021/06/02 03:15:20;;;;;;;;;;;;;;;20.72;44.67;101426.81;2094773;28;4019;-69
2021/06/02 03:16:21;;;;;;;;;;;;;;;20.71;44.80;101437.34;2083866;28;4019;-69
2021/06/02 03:17:22;;;;;;;;;;;;;;;20.70;44.86;101435.66;2085470;28;3872;-70
2021/06/02 03:18:24;;;;;;;;;;;;;;;20.70;44.72;101438.50;2096787;28;3882;-69
2021/06/02 03:19:26;;;;;;;;;;;;;;;20.69;44.75;101429.16;2096046;28;4001;-69
2021/06/02 03:20:27;;;;;;;;;;;;;;;20.69;44.71;101436.84;2097494;28;3886;-70
2021/06/02 03:21:28;;;;;;;;;;;;;;;20.69;44.79;101434.00;2096056;28;4077;-69
2021/06/02 03:22:30;;;;;;;;;;;;;;;20.69;44.94;101432.00;2096468;28;3904;-70
2021/06/02 03:23:31;;;;;;;;;;;;;;;20.70;44.90;101432.81;2097444;28;3837;-69
2021/06/02 03:24:33;;;;;;;;;;;;;;;20.69;44.82;101432.00;2096630;28;3996;-69
2021/06/02 03:25:34;;;;;;;;;;;;;;;20.69;44.81;101434.84;2096843;28;3972;-69
2021/06/02 03:26:35;;;;;;;;;;;;;;;20.69;44.76;101434.00;2097197;28;4107;-69
2021/06/02 03:27:37;;;;;;;;;;;;;;;20.69;44.98;101439.69;2098038;28;3966;-69
2021/06/02 03:28:38;;;;;;;;;;;;;;;20.68;44.86;101438.88;2098842;28;4001;-69
2021/06/02 03:29:39;;;;;;;;;;;;;;;20.68;44.83;101438.03;2098432;28;3960;-69
2021/06/02 03:30:40;;;;;;;;;;;;;;;20.66;44.82;101432.66;2097344;28;3804;-68
2021/06/02 03:31:42;;;;;;;;;;;;;;;20.67;44.87;101439.19;2097851;28;4002;-69
2021/06/02 03:32:43;;;;;;;;;;;;;;;20.67;45.05;101436.34;2097369;28;3939;-69
2021/06/02 03:33:44;;;;;;;;;;;;;;;20.66;44.99;101441.19;2097804;28;4406;-71
2021/06/02 03:34:45;;;;;;;;;;;;;;;20.65;45.01;101442.38;2099079;28;4054;-69
2021/06/02 03:35:46;;;;;;;;;;;;;;;20.65;44.98;101445.22;2098145;28;3935;-69
2021/06/02 03:36:49;;;;;;;;;;;;;;;20.65;45.15;101439.53;2097718;28;3863;-69
2021/06/02 03:37:50;;;;;;;;;;;;;;;20.64;44.97;101440.69;2098756;28;3934;-70
2021/06/02 03:38:51;;;;;;;;;;;;;;;20.64;45.11;101439.88;2098432;28;3914;-69
2021/06/02 03:39:52;;;;;;;;;;;;;;;20.64;45.00;101442.69;2098235;28;3876;-69
2021/06/02 03:40:53;;;;;;;;;;;;;;;20.63;45.10;101441.88;2088720;28;5428;-69
2021/06/02 03:41:55;;;;;;;;;;;;;;;20.64;45.25;101448.38;2090462;28;4052;-69
2021/06/02 03:42:56;;;;;;;;;;;;;;;20.64;45.19;101442.69;2098775;28;3879;-69
2021/06/02 03:43:58;;;;;;;;;;;;;;;20.64;45.16;101449.22;2098407;28;4013;-69
2021/06/02 03:44:59;;;;;;;;;;;;;;;20.64;45.15;101437.03;2097451;28;4085;-69
2021/06/02 03:46:00;;;;;;;;;;;;;;;20.64;45.17;101440.69;2096918;28;5298;-69
2021/06/02 03:47:02;;;;;;;;;;;;;;;20.63;45.28;101441.03;2099051;28;4002;-70
2021/06/02 03:48:03;;;;;;;;;;;;;;;20.63;45.19;101444.72;2097940;28;4003;-69
2021/06/02 03:49:04;;;;;;;;;;;;;;;20.63;45.22;101447.56;2097964;28;4020;-69
2021/06/02 03:50:05;;;;;;;;;;;;;;;20.62;45.43;101445.91;2099182;28;4017;-69
2021/06/02 03:51:06;;;;;;;;;;;;;;;20.62;45.25;101447.88;2097563;28;4171;-69
2021/06/02 03:52:08;;;;;;;;;;;;;;;20.62;45.44;101445.03;2097768;28;3866;-69
2021/06/02 03:53:09;;;;;;;;;;;;;;;20.61;45.41;101449.91;2096967;28;4062;-70
2021/06/02 03:54:11;;;;;;;;;;;;;;;20.61;45.33;101451.91;2099230;28;3824;-69
2021/06/02 03:55:12;;;;;;;;;;;;;;;20.62;45.36;101448.75;2097263;28;4013;-69
2021/06/02 03:56:18;;;;;;;;;;;;;;;20.62;45.49;101453.56;2097413;28;4164;-69
2021/06/02 03:57:19;;;;;;;;;;;;;;;20.62;45.45;101447.88;2094994;28;5370;-70
2021/06/02 03:58:21;;;;;;;;;;;;;;;20.61;45.44;101449.91;2093645;28;5119;-71
2021/06/02 03:59:22;;;;;;;;;;;;;;;20.61;45.69;101449.06;2096909;28;4005;-69
2021/06/02 04:00:23;;;;;;;;;;;;;;;20.60;45.59;101442.56;2096716;28;5171;-69
2021/06/02 04:01:24;;;;;;;;;;;;;;;20.61;45.63;101452.75;2097593;28;3842;-69
2021/06/02 04:02:25;;;;;;;;;;;;;;;20.60;45.66;101445.41;2098873;28;5309;-69
2021/06/02 04:03:27;;;;;;;;;;;;;;;20.60;45.62;101451.06;2098710;28;3981;-69
2021/06/02 04:04:28;;;;;;;;;;;;;;;20.61;45.67;101449.06;2097869;28;3933;-69
2021/06/02 04:05:29;;;;;;;;;;;;;;;20.60;45.56;101450.25;2097634;28;3982;-70
2021/06/02 04:06:30;;;;;;;;;;;;;;;20.60;45.80;101451.06;2098407;28;4014;-70
2021/06/02 04:07:32;;;;;;;;;;;;;;;20.59;45.70;101452.25;2097520;28;5092;-71
2021/06/02 04:08:33;;;;;;;;;;;;;;;20.60;45.82;101453.09;2096454;28;3992;-70
2021/06/02 04:09:37;;;;;;;;;;;;;;;20.58;45.73;101450.56;2095122;28;3893;-70
2021/06/02 04:10:38;;;;;;;;;;;;;;;20.60;45.88;101450.25;2096264;28;3840;-69
2021/06/02 04:11:39;;;;;;;;;;;;;;;20.60;45.81;101458.78;2098051;28;3808;-70
2021/06/02 04:12:41;;;;;;;;;;;;;;;20.59;45.90;101454.25;2098598;28;3950;-71
2021/06/02 04:13:43;;;;;;;;;;;;;;;20.59;45.79;101459.94;2096827;28;3842;-70
2021/06/02 04:14:44;;;;;;;;;;;;;;;20.59;45.93;101455.09;2098058;28;5021;-71
2021/06/02 04:15:45;;;;;;;;;;;;;;;20.60;45.87;101453.09;2095864;28;3756;-70
2021/06/02 04:16:46;;;;;;;;;;;;;;;20.59;45.91;101460.78;2097658;28;4014;-71
2021/06/02 04:17:47;;;;;;;;;;;;;;;20.60;45.86;101459.59;2097881;28;4087;-71
2021/06/02 04:18:49;;;;;;;;;;;;;;;20.60;45.96;101461.63;2097403;28;4018;-71
2021/06/02 04:19:50;;;;;;;;;;;;;;;20.60;45.92;101458.78;2095165;28;3882;-71
2021/06/02 04:20:51;;;;;;;;;;;;;;;20.61;45.94;101463.28;2096372;28;4931;-71
2021/06/02 04:21:52;;;;;;;;;;;;;;;20.61;45.91;101466.13;2097518;28;3845;-70
2021/06/02 04:22:53;;;;;;;;;;;;;;;20.61;45.78;101466.13;2096676;28;4093;-69
2021/06/02 04:23:55;;;;;;;;;;;;;;;20.60;45.89;101470.97;2096771;28;4321;-69
2021/06/02 04:24:56;;;;;;;;;;;;;;;20.60;45.99;101468.13;2096045;28;4007;-70
2021/06/02 04:25:57;;;;;;;;;;;;;;;20.60;45.92;101464.47;2094797;28;3807;-70
2021/06/02 04:26:58;;;;;;;;;;;;;;;20.60;45.84;101464.47;2096393;28;4109;-70
2021/06/02 04:28:00;;;;;;;;;;;;;;;20.60;46.02;101458.78;2096187;28;3926;-70
2021/06/02 04:29:01;;;;;;;;;;;;;;;20.59;45.95;101457.94;2096296;28;3874;-70
2021/06/02 04:30:03;;;;;;;;;;;;;;;20.60;45.78;101461.63;2097917;28;3857;-70
2021/06/02 04:31:04;;;;;;;;;;;;;;;20.60;46.06;101464.47;2098065;28;3997;-70
2021/06/02 04:32:05;;;;;;;;;;;;;;;20.59;46.11;101457.09;2098741;28;3852;-70
2021/06/02 04:33:07;;;;;;;;;;;;;;;20.58;46.09;101461.94;2098523;28;4197;-70
2021/06/02 04:34:08;;;;;;;;;;;;;;;20.58;46.01;101461.94;2098176;28;4288;-70
2021/06/02 04:35:09;;;;;;;;;;;;;;;20.58;46.07;101461.09;2098881;28;3861;-69
2021/06/02 04:36:10;;;;;;;;;;;;;;;20.59;46.09;101457.09;2097983;28;4006;-70
2021/06/02 04:37:11;;;;;;;;;;;;;;;20.57;46.25;101450.91;2096683;28;4007;-69
2021/06/02 04:38:13;;;;;;;;;;;;;;;;;;2096829;28;4009;-69
2021/06/02 04:39:14;;;;;;;;;;;;;;;20.57;46.08;101450.91;2097998;28;4071;-68
2021/06/02 04:40:15;;;;;;;;;;;;;;;20.57;46.24;101450.91;2098113;28;4000;-69
2021/06/02 04:41:16;;;;;;;;;;;;;;;20.57;46.16;101450.91;2097869;28;3848;-70
2021/06/02 04:42:17;;;;;;;;;;;;;;;20.56;46.28;101452.91;2098358;28;4022;-69
2021/06/02 04:43:19;;;;;;;;;;;;;;;20.56;46.22;101446.38;2089022;28;4365;-70
2021/06/02 04:44:20;;;;;;;;;;;;;;;20.56;46.16;101452.91;2089508;28;4338;-69
2021/06/02 04:45:21;;;;;;;;;;;;;;;20.56;46.38;101449.22;2098283;28;5324;-69
2021/06/02 04:46:22;;;;;;;;;;;;;;;20.57;46.17;101450.91;2098939;28;4019;-69
2021/06/02 04:47:24;;;;;;;;;;;;;;;20.56;46.40;101450.06;2098976;28;4002;-69
2021/06/02 04:48:25;;;;;;;;;;;;;;;20.57;46.24;101448.06;2089417;28;4009;-70
2021/06/02 04:49:26;;;;;;;;;;;;;;;20.57;46.27;101450.91;2088730;28;4212;-70
2021/06/02 04:50:27;;;;;;;;;;;;;;;20.56;46.22;101449.22;2099181;28;4174;-69
2021/06/02 04:51:28;;;;;;;;;;;;;;;20.55;46.32;101448.41;2098779;28;3831;-70
2021/06/02 04:52:30;;;;;;;;;;;;;;;20.55;46.43;101445.56;2097800;28;4153;-70
2021/06/02 04:53:32;;;;;;;;;;;;;;;20.56;46.28;101452.06;2098442;28;3931;-68
2021/06/02 04:54:34;;;;;;;;;;;;;;;20.55;46.39;101447.56;2097714;28;4013;-68
2021/06/02 04:55:35;;;;;;;;;;;;;;;20.54;46.34;101454.41;2098313;28;3812;-69
2021/06/02 04:56:36;;;;;;;;;;;;;;;20.54;46.41;101455.25;2097807;28;4376;-69
2021/06/02 04:57:38;;;;;;;;;;;;;;;20.54;46.43;101451.56;2098446;28;3977;-69
2021/06/02 04:58:39;;;;;;;;;;;;;;;20.53;46.30;101447.88;2097020;28;4035;-69
2021/06/02 04:59:40;;;;;;;;;;;;;;;20.54;46.41;101460.94;2097483;28;4305;-69
2021/06/02 05:00:41;;;;;;;;;;;;;;;20.54;46.60;101462.94;2098619;28;3953;-68
2021/06/02 05:01:43;;;;;;;;;;;;;;;20.54;46.60;101454.41;2097014;28;3988;-69
2021/06/02 05:02:44;;;;;;;;;;;;;;;20.54;46.54;101460.09;2098191;28;3880;-69
2021/06/02 05:03:46;;;;;;;;;;;;;;;20.53;46.40;101459.25;2097684;28;3978;-69
2021/06/02 05:04:47;;;;;;;;;;;;;;;20.52;46.59;101460.41;2098378;28;3836;-69
2021/06/02 05:05:48;;;;;;;;;;;;;;;20.52;46.42;101459.56;2097895;28;3904;-70
2021/06/02 05:06:49;;;;;;;;;;;;;;;20.53;46.54;101464.94;2097244;28;3997;-70
2021/06/02 05:07:50;;;;;;;;;;;;;;;20.53;46.66;101458.41;2097714;28;3927;-69
2021/06/02 05:08:52;;;;;;;;;;;;;;;20.52;46.63;101459.56;2097961;28;4005;-69
2021/06/02 05:09:53;;;;;;;;;;;;;;;20.52;46.64;101468.94;2097047;28;4008;-68
2021/06/02 05:10:54;;;;;;;;;;;;;;;20.52;46.49;101459.56;2098538;28;4017;-68
2021/06/02 05:11:55;;;;;;;;;;;;;;;20.53;46.50;101472.63;2097676;28;4063;-68
2021/06/02 05:12:57;;;;;;;;;;;;;;;20.53;46.58;101475.44;2097999;28;3846;-68
2021/06/02 05:13:58;;;;;;;;;;;;;;;20.53;46.61;101469.78;2097148;28;4025;-68
2021/06/02 05:14:59;;;;;;;;;;;;;;;20.53;46.62;101469.78;2097727;28;4012;-68
2021/06/02 05:16:00;;;;;;;;;;;;;;;20.53;46.70;101472.63;2097702;28;3850;-68
2021/06/02 05:17:01;;;;;;;;;;;;;;;20.52;46.62;101474.63;2097532;28;4105;-68
2021/06/02 05:18:03;;;;;;;;;;;;;;;20.52;46.66;101483.16;2098242;28;4000;-68
2021/06/02 05:19:17;;;;;;;;;;;;;;;20.52;46.81;101479.47;2097605;28;3855;-70
2021/06/02 05:20:21;;;;;;;;;;;;;;;20.52;46.62;101485.16;2097716;28;4021;-69